sensor_id;sensor_type;location;lat;lon;timestamp;pressure;altitude;pressure_sealevel;temperature;humidity
73453;BME280;61687;56.232;43.854;2023-02-28T00:00:49;100813.34;;;-6.72;68.39
73453;BME280;61687;56.232;43.854;2023-02-28T00:03:15;100822.06;;;-6.77;68.34
73453;BME280;61687;56.232;43.854;2023-02-28T00:05:41;100819.88;;;-6.80;68.49
73453;BME280;61687;56.232;43.854;2023-02-28T00:08:08;100822.06;;;-6.77;68.54
73453;BME280;61687;56.232;43.854;2023-02-28T00:10:34;100816.56;;;-6.70;68.35
73453;BME280;61687;56.232;43.854;2023-02-28T00:13:02;100814.16;;;-6.71;68.36
73453;BME280;61687;56.232;43.854;2023-02-28T00:15:29;100816.69;;;-6.65;68.28
73453;BME280;61687;56.232;43.854;2023-02-28T00:17:55;100817.81;;;-6.61;68.43
73453;BME280;61687;56.232;43.854;2023-02-28T00:20:21;100816.28;;;-6.56;68.29
73453;BME280;61687;56.232;43.854;2023-02-28T00:22:50;100811.16;;;-6.46;68.28
73453;BME280;61687;56.232;43.854;2023-02-28T00:25:19;100811.59;;;-6.49;68.23
73453;BME280;61687;56.232;43.854;2023-02-28T00:27:45;100805.63;;;-6.39;67.96
73453;BME280;61687;56.232;43.854;2023-02-28T00:30:14;100811.94;;;-6.45;68.30
73453;BME280;61687;56.232;43.854;2023-02-28T00:32:41;100801.44;;;-6.52;68.49
73453;BME280;61687;56.232;43.854;2023-02-28T00:35:08;100793.81;;;-6.61;68.76
73453;BME280;61687;56.232;43.854;2023-02-28T00:37:34;100792.34;;;-6.68;68.89
73453;BME280;61687;56.232;43.854;2023-02-28T00:40:00;100791.13;;;-6.78;69.17
73453;BME280;61687;56.232;43.854;2023-02-28T00:42:28;100781.19;;;-6.82;69.48
73453;BME280;61687;56.232;43.854;2023-02-28T00:44:54;100774.38;;;-6.90;69.61
73453;BME280;61687;56.232;43.854;2023-02-28T00:47:20;100771.50;;;-6.88;69.58
73453;BME280;61687;56.232;43.854;2023-02-28T00:49:46;100771.94;;;-6.92;69.63
73453;BME280;61687;56.232;43.854;2023-02-28T00:52:13;100766.31;;;-6.95;69.57
73453;BME280;61687;56.232;43.854;2023-02-28T00:54:39;100767.59;;;-6.98;69.56
73453;BME280;61687;56.232;43.854;2023-02-28T00:57:06;100762.16;;;-7.03;69.90
73453;BME280;61687;56.232;43.854;2023-02-28T00:59:32;100758.50;;;-7.14;69.98
73453;BME280;61687;56.232;43.854;2023-02-28T01:01:58;100761.22;;;-7.26;70.29
73453;BME280;61687;56.232;43.854;2023-02-28T01:04:24;100749.97;;;-7.28;70.48
73453;BME280;61687;56.232;43.854;2023-02-28T01:06:50;100747.69;;;-7.36;70.50
73453;BME280;61687;56.232;43.854;2023-02-28T01:09:16;100742.25;;;-7.41;70.70
73453;BME280;61687;56.232;43.854;2023-02-28T01:11:42;100736.38;;;-7.43;70.86
73453;BME280;61687;56.232;43.854;2023-02-28T01:14:14;100730.38;;;-7.51;71.21
73453;BME280;61687;56.232;43.854;2023-02-28T01:16:41;100723.53;;;-7.47;70.96
73453;BME280;61687;56.232;43.854;2023-02-28T01:19:07;100710.78;;;-7.44;70.88
73453;BME280;61687;56.232;43.854;2023-02-28T01:21:33;100712.06;;;-7.47;71.10
73453;BME280;61687;56.232;43.854;2023-02-28T01:24:00;100708.03;;;-7.50;71.19
73453;BME280;61687;56.232;43.854;2023-02-28T01:26:27;100705.94;;;-7.48;71.29
73453;BME280;61687;56.232;43.854;2023-02-28T01:28:53;100704.31;;;-7.49;71.38
73453;BME280;61687;56.232;43.854;2023-02-28T01:31:20;100712.53;;;-7.50;71.33
73453;BME280;61687;56.232;43.854;2023-02-28T01:33:48;100709.16;;;-7.45;71.25
73453;BME280;61687;56.232;43.854;2023-02-28T01:36:17;100704.50;;;-7.38;71.17
73453;BME280;61687;56.232;43.854;2023-02-28T01:38:44;100709.84;;;-7.38;71.17
73453;BME280;61687;56.232;43.854;2023-02-28T01:41:25;100700.47;;;-7.41;71.02
73453;BME280;61687;56.232;43.854;2023-02-28T01:43:54;100717.16;;;-7.45;71.17
73453;BME280;61687;56.232;43.854;2023-02-28T01:46:20;100710.69;;;-7.50;71.45
73453;BME280;61687;56.232;43.854;2023-02-28T01:48:54;100702.59;;;-7.55;71.55
73453;BME280;61687;56.232;43.854;2023-02-28T01:54:09;100706.06;;;-7.54;71.55
73453;BME280;61687;56.232;43.854;2023-02-28T01:56:46;100696.69;;;-7.57;71.58
73453;BME280;61687;56.232;43.854;2023-02-28T01:59:43;100698.66;;;-7.52;71.84
73453;BME280;61687;56.232;43.854;2023-02-28T02:02:18;100689.28;;;-7.55;71.64
73453;BME280;61687;56.232;43.854;2023-02-28T02:04:58;100698.09;;;-7.54;71.71
73453;BME280;61687;56.232;43.854;2023-02-28T02:07:32;100690.56;;;-7.57;71.67
73453;BME280;61687;56.232;43.854;2023-02-28T02:10:06;100675.88;;;-7.60;71.87
73453;BME280;61687;56.232;43.854;2023-02-28T02:12:43;100665.56;;;-7.56;71.79
73453;BME280;61687;56.232;43.854;2023-02-28T02:15:20;100661.03;;;-7.56;71.78
73453;BME280;61687;56.232;43.854;2023-02-28T02:17:52;100652.00;;;-7.55;71.68
73453;BME280;61687;56.232;43.854;2023-02-28T02:26:33;100645.06;;;-7.56;71.66
73453;BME280;61687;56.232;43.854;2023-02-28T02:31:56;100638.06;;;-7.62;71.81
73453;BME280;61687;56.232;43.854;2023-02-28T02:40:18;100626.34;;;-7.61;71.56
73453;BME280;61687;56.232;43.854;2023-02-28T02:45:17;100615.97;;;-7.63;71.69
73453;BME280;61687;56.232;43.854;2023-02-28T02:47:46;100612.13;;;-7.67;71.66
73453;BME280;61687;56.232;43.854;2023-02-28T02:50:19;100598.03;;;-7.67;71.86
73453;BME280;61687;56.232;43.854;2023-02-28T02:52:52;100600.44;;;-7.66;71.70
73453;BME280;61687;56.232;43.854;2023-02-28T02:55:21;100588.44;;;-7.68;71.85
73453;BME280;61687;56.232;43.854;2023-02-28T02:57:52;100578.75;;;-7.74;71.93
73453;BME280;61687;56.232;43.854;2023-02-28T03:00:24;100577.28;;;-7.82;72.18
73453;BME280;61687;56.232;43.854;2023-02-28T03:02:54;100580.66;;;-7.87;72.14
73453;BME280;61687;56.232;43.854;2023-02-28T03:05:26;100569.44;;;-7.89;72.57
73453;BME280;61687;56.232;43.854;2023-02-28T03:07:54;100554.84;;;-7.86;72.52
73453;BME280;61687;56.232;43.854;2023-02-28T03:10:50;100551.63;;;-7.88;72.60
73453;BME280;61687;56.232;43.854;2023-02-28T03:13:39;100547.69;;;-7.86;72.61
73453;BME280;61687;56.232;43.854;2023-02-28T03:27:28;100488.41;;;-7.98;73.20
73453;BME280;61687;56.232;43.854;2023-02-28T03:30:00;100477.53;;;-7.97;73.18
73453;BME280;61687;56.232;43.854;2023-02-28T03:35:11;100468.66;;;-8.02;73.28
73453;BME280;61687;56.232;43.854;2023-02-28T03:37:42;100445.19;;;-8.06;73.39
73453;BME280;61687;56.232;43.854;2023-02-28T03:40:30;100446.59;;;-8.03;73.42
73453;BME280;61687;56.232;43.854;2023-02-28T03:43:02;100448.97;;;-8.01;73.30
73453;BME280;61687;56.232;43.854;2023-02-28T03:45:32;100459.06;;;-8.03;73.22
73453;BME280;61687;56.232;43.854;2023-02-28T03:48:25;100453.75;;;-8.03;73.48
73453;BME280;61687;56.232;43.854;2023-02-28T03:50:55;100438.13;;;-8.00;73.20
73453;BME280;61687;56.232;43.854;2023-02-28T03:53:31;100445.06;;;-7.99;73.35
73453;BME280;61687;56.232;43.854;2023-02-28T03:56:20;100434.41;;;-7.99;73.00
73453;BME280;61687;56.232;43.854;2023-02-28T03:58:53;100432.31;;;-7.97;72.98
73453;BME280;61687;56.232;43.854;2023-02-28T04:01:35;100418.78;;;-7.95;72.71
73453;BME280;61687;56.232;43.854;2023-02-28T04:04:02;100420.56;;;-8.01;72.89
73453;BME280;61687;56.232;43.854;2023-02-28T04:06:31;100417.97;;;-7.96;72.64
73453;BME280;61687;56.232;43.854;2023-02-28T04:08:57;100414.75;;;-7.98;72.71
73453;BME280;61687;56.232;43.854;2023-02-28T04:11:39;100409.50;;;-7.93;72.39
73453;BME280;61687;56.232;43.854;2023-02-28T04:14:07;100396.47;;;-7.94;72.16
73453;BME280;61687;56.232;43.854;2023-02-28T04:16:34;100378.72;;;-7.88;71.90
73453;BME280;61687;56.232;43.854;2023-02-28T04:19:06;100366.78;;;-7.86;72.00
73453;BME280;61687;56.232;43.854;2023-02-28T04:21:35;100366.22;;;-7.88;71.85
73453;BME280;61687;56.232;43.854;2023-02-28T04:24:01;100367.34;;;-7.84;71.70
73453;BME280;61687;56.232;43.854;2023-02-28T04:26:33;100359.38;;;-7.84;71.55
73453;BME280;61687;56.232;43.854;2023-02-28T04:29:00;100350.41;;;-7.78;71.13
73453;BME280;61687;56.232;43.854;2023-02-28T04:31:26;100341.69;;;-7.73;71.05
73453;BME280;61687;56.232;43.854;2023-02-28T04:33:52;100331.63;;;-7.71;70.94
73453;BME280;61687;56.232;43.854;2023-02-28T04:36:18;100317.59;;;-7.66;70.93
73453;BME280;61687;56.232;43.854;2023-02-28T04:38:45;100321.31;;;-7.67;70.64
73453;BME280;61687;56.232;43.854;2023-02-28T04:41:15;100314.44;;;-7.63;70.74
73453;BME280;61687;56.232;43.854;2023-02-28T04:43:42;100319.31;;;-7.55;70.42
73453;BME280;61687;56.232;43.854;2023-02-28T04:46:08;100308.31;;;-7.41;69.85
73453;BME280;61687;56.232;43.854;2023-02-28T04:48:36;100311.59;;;-7.34;69.54
73453;BME280;61687;56.232;43.854;2023-02-28T04:51:05;100317.00;;;-7.29;69.24
73453;BME280;61687;56.232;43.854;2023-02-28T04:53:31;100310.75;;;-7.18;68.61
73453;BME280;61687;56.232;43.854;2023-02-28T04:55:58;100304.84;;;-7.20;68.08
73453;BME280;61687;56.232;43.854;2023-02-28T04:58:25;100306.03;;;-7.10;67.99
73453;BME280;61687;56.232;43.854;2023-02-28T05:00:52;100294.13;;;-7.02;67.70
73453;BME280;61687;56.232;43.854;2023-02-28T05:03:19;100294.44;;;-6.99;67.81
73453;BME280;61687;56.232;43.854;2023-02-28T05:05:46;100296.91;;;-6.92;67.28
73453;BME280;61687;56.232;43.854;2023-02-28T05:08:12;100303.16;;;-6.81;67.26
73453;BME280;61687;56.232;43.854;2023-02-28T05:10:39;100295.25;;;-6.71;67.06
73453;BME280;61687;56.232;43.854;2023-02-28T05:13:05;100292.56;;;-6.71;66.45
73453;BME280;61687;56.232;43.854;2023-02-28T05:15:30;100306.75;;;-6.65;66.45
73453;BME280;61687;56.232;43.854;2023-02-28T05:17:56;100290.31;;;-6.57;66.18
73453;BME280;61687;56.232;43.854;2023-02-28T05:20:22;100287.16;;;-6.54;65.68
73453;BME280;61687;56.232;43.854;2023-02-28T05:22:49;100286.03;;;-6.58;65.75
73453;BME280;61687;56.232;43.854;2023-02-28T05:25:20;100283.22;;;-6.46;65.41
73453;BME280;61687;56.232;43.854;2023-02-28T05:27:49;100275.22;;;-6.46;65.08
73453;BME280;61687;56.232;43.854;2023-02-28T05:30:16;100261.44;;;-6.33;65.44
73453;BME280;61687;56.232;43.854;2023-02-28T05:32:42;100254.31;;;-6.22;64.73
73453;BME280;61687;56.232;43.854;2023-02-28T05:35:10;100240.97;;;-6.22;64.49
73453;BME280;61687;56.232;43.854;2023-02-28T05:37:37;100252.25;;;-6.14;64.18
73453;BME280;61687;56.232;43.854;2023-02-28T05:40:04;100234.13;;;-6.12;64.22
73453;BME280;61687;56.232;43.854;2023-02-28T05:42:36;100221.09;;;-5.98;64.00
73453;BME280;61687;56.232;43.854;2023-02-28T05:45:03;100217.47;;;-5.82;63.53
73453;BME280;61687;56.232;43.854;2023-02-28T05:47:30;100202.81;;;-5.69;63.27
73453;BME280;61687;56.232;43.854;2023-02-28T05:49:56;100196.19;;;-5.56;63.22
73453;BME280;61687;56.232;43.854;2023-02-28T05:52:22;100186.59;;;-5.52;63.70
73453;BME280;61687;56.232;43.854;2023-02-28T05:54:48;100163.94;;;-5.34;62.89
73453;BME280;61687;56.232;43.854;2023-02-28T05:57:15;100164.22;;;-5.40;62.75
73453;BME280;61687;56.232;43.854;2023-02-28T05:59:41;100167.91;;;-5.52;62.67
73453;BME280;61687;56.232;43.854;2023-02-28T06:02:12;100161.25;;;-5.44;62.96
73453;BME280;61687;56.232;43.854;2023-02-28T06:04:38;100150.84;;;-5.40;62.46
73453;BME280;61687;56.232;43.854;2023-02-28T06:07:04;100136.44;;;-5.24;61.93
73453;BME280;61687;56.232;43.854;2023-02-28T06:09:29;100121.47;;;-5.30;61.77
73453;BME280;61687;56.232;43.854;2023-02-28T06:12:00;100123.88;;;-5.34;61.88
73453;BME280;61687;56.232;43.854;2023-02-28T06:14:29;100111.31;;;-5.38;61.86
73453;BME280;61687;56.232;43.854;2023-02-28T06:16:57;100109.16;;;-5.41;62.14
73453;BME280;61687;56.232;43.854;2023-02-28T06:19:23;100092.63;;;-5.33;61.59
73453;BME280;61687;56.232;43.854;2023-02-28T06:21:52;100096.38;;;-5.29;61.78
73453;BME280;61687;56.232;43.854;2023-02-28T06:24:19;100085.16;;;-5.26;61.59
73453;BME280;61687;56.232;43.854;2023-02-28T06:26:45;100088.34;;;-5.24;61.33
73453;BME280;61687;56.232;43.854;2023-02-28T06:29:11;100072.31;;;-5.24;61.45
73453;BME280;61687;56.232;43.854;2023-02-28T06:31:37;100078.47;;;-5.28;61.81
73453;BME280;61687;56.232;43.854;2023-02-28T06:34:04;100061.91;;;-5.36;61.96
73453;BME280;61687;56.232;43.854;2023-02-28T06:36:30;100058.19;;;-5.29;61.96
73453;BME280;61687;56.232;43.854;2023-02-28T06:38:56;100038.94;;;-5.26;61.74
73453;BME280;61687;56.232;43.854;2023-02-28T06:41:24;100030.13;;;-5.11;61.45
73453;BME280;61687;56.232;43.854;2023-02-28T06:43:51;100018.31;;;-4.90;60.89
73453;BME280;61687;56.232;43.854;2023-02-28T06:46:18;100004.91;;;-4.79;60.46
73453;BME280;61687;56.232;43.854;2023-02-28T06:48:44;100000.88;;;-4.71;60.21
73453;BME280;61687;56.232;43.854;2023-02-28T06:51:14;99992.84;;;-4.61;59.69
73453;BME280;61687;56.232;43.854;2023-02-28T06:53:41;99990.88;;;-4.40;59.73
73453;BME280;61687;56.232;43.854;2023-02-28T06:56:11;99982.28;;;-4.37;58.83
73453;BME280;61687;56.232;43.854;2023-02-28T06:58:38;99969.47;;;-4.35;58.81
73453;BME280;61687;56.232;43.854;2023-02-28T07:01:06;99968.06;;;-4.27;58.80
73453;BME280;61687;56.232;43.854;2023-02-28T07:03:32;99957.56;;;-4.13;58.32
73453;BME280;61687;56.232;43.854;2023-02-28T07:05:59;99950.59;;;-4.14;58.16
73453;BME280;61687;56.232;43.854;2023-02-28T07:08:25;99940.84;;;-3.94;58.21
73453;BME280;61687;56.232;43.854;2023-02-28T07:10:56;99932.78;;;-3.89;57.05
73453;BME280;61687;56.232;43.854;2023-02-28T07:13:22;99930.84;;;-3.83;57.05
73453;BME280;61687;56.232;43.854;2023-02-28T07:15:56;99921.41;;;-3.76;56.58
73453;BME280;61687;56.232;43.854;2023-02-28T07:18:22;99893.81;;;-3.71;56.23
73453;BME280;61687;56.232;43.854;2023-02-28T07:20:48;99895.31;;;-3.60;56.34
73453;BME280;61687;56.232;43.854;2023-02-28T07:23:14;99882.25;;;-3.37;55.43
73453;BME280;61687;56.232;43.854;2023-02-28T07:25:40;99887.53;;;-3.32;55.66
73453;BME280;61687;56.232;43.854;2023-02-28T07:28:05;99875.09;;;-3.22;54.83
73453;BME280;61687;56.232;43.854;2023-02-28T07:30:31;99873.59;;;-3.09;54.75
73453;BME280;61687;56.232;43.854;2023-02-28T07:32:57;99878.94;;;-2.85;54.79
73453;BME280;61687;56.232;43.854;2023-02-28T07:35:23;99873.16;;;-2.92;53.99
73453;BME280;61687;56.232;43.854;2023-02-28T07:37:49;99868.56;;;-2.92;53.86
73453;BME280;61687;56.232;43.854;2023-02-28T07:40:16;99859.59;;;-3.01;53.60
73453;BME280;61687;56.232;43.854;2023-02-28T07:42:44;99863.34;;;-3.02;53.46
73453;BME280;61687;56.232;43.854;2023-02-28T07:45:11;99859.50;;;-2.96;53.80
73453;BME280;61687;56.232;43.854;2023-02-28T07:47:41;99842.06;;;-2.93;53.12
73453;BME280;61687;56.232;43.854;2023-02-28T07:50:11;99833.88;;;-2.83;53.87
73453;BME280;61687;56.232;43.854;2023-02-28T07:52:38;99834.88;;;-2.79;52.74
73453;BME280;61687;56.232;43.854;2023-02-28T07:55:06;99836.00;;;-2.61;53.10
73453;BME280;61687;56.232;43.854;2023-02-28T07:57:32;99825.91;;;-2.17;51.80
73453;BME280;61687;56.232;43.854;2023-02-28T07:59:58;99818.47;;;-1.73;51.45
73453;BME280;61687;56.232;43.854;2023-02-28T08:02:24;99813.38;;;-1.60;50.36
73453;BME280;61687;56.232;43.854;2023-02-28T08:04:50;99822.16;;;-1.68;50.97
73453;BME280;61687;56.232;43.854;2023-02-28T08:07:17;99814.78;;;-1.91;51.01
73453;BME280;61687;56.232;43.854;2023-02-28T08:09:44;99823.28;;;-2.03;51.45
73453;BME280;61687;56.232;43.854;2023-02-28T08:12:11;99827.78;;;-2.31;52.15
73453;BME280;61687;56.232;43.854;2023-02-28T08:14:37;99830.31;;;-2.40;52.84
73453;BME280;61687;56.232;43.854;2023-02-28T08:17:05;99822.28;;;-2.40;53.48
73453;BME280;61687;56.232;43.854;2023-02-28T08:19:31;99809.88;;;-2.36;52.91
73453;BME280;61687;56.232;43.854;2023-02-28T08:21:57;99810.88;;;-2.32;53.37
73453;BME280;61687;56.232;43.854;2023-02-28T08:24:23;99813.47;;;-2.26;53.06
73453;BME280;61687;56.232;43.854;2023-02-28T08:26:49;99818.03;;;-2.27;53.12
73453;BME280;61687;56.232;43.854;2023-02-28T08:29:15;99809.91;;;-2.22;53.35
73453;BME280;61687;56.232;43.854;2023-02-28T08:31:42;99810.44;;;-2.06;53.33
73453;BME280;61687;56.232;43.854;2023-02-28T08:34:10;99806.88;;;-2.01;53.00
73453;BME280;61687;56.232;43.854;2023-02-28T08:36:36;99797.03;;;-1.92;53.14
73453;BME280;61687;56.232;43.854;2023-02-28T08:39:03;99794.78;;;-1.84;53.30
73453;BME280;61687;56.232;43.854;2023-02-28T08:41:29;99800.25;;;-1.76;53.08
73453;BME280;61687;56.232;43.854;2023-02-28T08:43:55;99789.13;;;-1.69;53.77
73453;BME280;61687;56.232;43.854;2023-02-28T08:46:22;99793.59;;;-1.78;53.83
73453;BME280;61687;56.232;43.854;2023-02-28T08:48:52;99790.88;;;-1.92;54.39
73453;BME280;61687;56.232;43.854;2023-02-28T08:51:19;99782.81;;;-2.06;54.73
73453;BME280;61687;56.232;43.854;2023-02-28T08:53:52;99782.81;;;-2.06;55.39
73453;BME280;61687;56.232;43.854;2023-02-28T08:56:19;99780.63;;;-2.04;55.11
73453;BME280;61687;56.232;43.854;2023-02-28T08:58:47;99773.88;;;-2.02;55.57
73453;BME280;61687;56.232;43.854;2023-02-28T09:01:15;99775.91;;;-2.12;55.69
73453;BME280;61687;56.232;43.854;2023-02-28T09:03:42;99778.28;;;-2.25;56.02
73453;BME280;61687;56.232;43.854;2023-02-28T09:06:09;99771.06;;;-2.10;56.17
73453;BME280;61687;56.232;43.854;2023-02-28T09:08:35;99771.69;;;-1.99;56.27
73453;BME280;61687;56.232;43.854;2023-02-28T09:11:02;99758.44;;;-2.10;56.11
73453;BME280;61687;56.232;43.854;2023-02-28T09:13:28;99764.28;;;-2.22;56.40
73453;BME280;61687;56.232;43.854;2023-02-28T09:15:58;99766.09;;;-2.17;56.65
73453;BME280;61687;56.232;43.854;2023-02-28T09:18:25;99756.81;;;-2.25;56.57
73453;BME280;61687;56.232;43.854;2023-02-28T09:20:51;99762.91;;;-2.05;56.67
73453;BME280;61687;56.232;43.854;2023-02-28T09:23:18;99758.94;;;-2.08;57.34
73453;BME280;61687;56.232;43.854;2023-02-28T09:25:52;99771.69;;;-1.85;56.39
73453;BME280;61687;56.232;43.854;2023-02-28T09:28:19;99753.66;;;-2.13;56.22
73453;BME280;61687;56.232;43.854;2023-02-28T09:30:47;99748.28;;;-2.13;56.64
73453;BME280;61687;56.232;43.854;2023-02-28T09:33:14;99765.28;;;-2.04;56.61
73453;BME280;61687;56.232;43.854;2023-02-28T09:35:40;99751.19;;;-2.09;56.63
73453;BME280;61687;56.232;43.854;2023-02-28T09:38:06;99744.50;;;-2.12;56.96
73453;BME280;61687;56.232;43.854;2023-02-28T09:40:58;99740.81;;;-2.16;57.67
73453;BME280;61687;56.232;43.854;2023-02-28T09:43:24;99761.38;;;-2.25;58.56
73453;BME280;61687;56.232;43.854;2023-02-28T09:48:38;99725.19;;;-2.42;60.05
73453;BME280;61687;56.232;43.854;2023-02-28T09:53:39;99727.03;;;-2.42;60.64
73453;BME280;61687;56.232;43.854;2023-02-28T09:56:18;99724.91;;;-2.60;61.66
73453;BME280;61687;56.232;43.854;2023-02-28T09:59:05;99742.69;;;-2.64;62.38
73453;BME280;61687;56.232;43.854;2023-02-28T10:10:19;99733.06;;;-2.65;62.84
73453;BME280;61687;56.232;43.854;2023-02-28T10:12:46;99725.50;;;-2.63;62.84
73453;BME280;61687;56.232;43.854;2023-02-28T10:15:16;99727.09;;;-2.62;62.24
73453;BME280;61687;56.232;43.854;2023-02-28T10:17:46;99734.09;;;-2.47;62.31
73453;BME280;61687;56.232;43.854;2023-02-28T10:20:19;99733.28;;;-2.47;61.67
73453;BME280;61687;56.232;43.854;2023-02-28T10:25:36;99709.78;;;-2.69;62.46
73453;BME280;61687;56.232;43.854;2023-02-28T10:28:13;99711.38;;;-2.68;62.69
73453;BME280;61687;56.232;43.854;2023-02-28T10:30:42;99705.78;;;-2.72;62.39
73453;BME280;61687;56.232;43.854;2023-02-28T10:33:38;99720.28;;;-2.73;63.08
73453;BME280;61687;56.232;43.854;2023-02-28T10:36:04;99701.03;;;-2.75;64.03
73453;BME280;61687;56.232;43.854;2023-02-28T10:38:34;99706.97;;;-2.78;64.50
73453;BME280;61687;56.232;43.854;2023-02-28T10:41:27;99703.91;;;-2.71;64.57
73453;BME280;61687;56.232;43.854;2023-02-28T10:44:21;99696.19;;;-2.59;64.48
73453;BME280;61687;56.232;43.854;2023-02-28T10:46:48;99702.31;;;-2.39;64.69
73453;BME280;61687;56.232;43.854;2023-02-28T10:49:22;99694.16;;;-2.34;65.10
73453;BME280;61687;56.232;43.854;2023-02-28T10:51:52;99685.03;;;-2.33;65.01
73453;BME280;61687;56.232;43.854;2023-02-28T10:54:28;99691.19;;;-2.33;65.55
73453;BME280;61687;56.232;43.854;2023-02-28T10:57:17;99683.34;;;-2.29;65.66
73453;BME280;61687;56.232;43.854;2023-02-28T10:59:44;99669.38;;;-2.45;66.61
73453;BME280;61687;56.232;43.854;2023-02-28T11:02:36;99659.13;;;-2.57;67.52
73453;BME280;61687;56.232;43.854;2023-02-28T11:05:34;99657.75;;;-2.54;67.78
73453;BME280;61687;56.232;43.854;2023-02-28T11:08:13;99650.72;;;-2.50;67.31
73453;BME280;61687;56.232;43.854;2023-02-28T11:10:39;99640.66;;;-2.59;67.56
73453;BME280;61687;56.232;43.854;2023-02-28T11:13:17;99645.78;;;-2.76;68.85
73453;BME280;61687;56.232;43.854;2023-02-28T11:15:51;99628.63;;;-2.75;69.24
73453;BME280;61687;56.232;43.854;2023-02-28T11:18:30;99647.16;;;-2.79;70.01
73453;BME280;61687;56.232;43.854;2023-02-28T11:21:02;99642.31;;;-2.77;70.55
73453;BME280;61687;56.232;43.854;2023-02-28T11:23:30;99643.31;;;-2.72;70.96
73453;BME280;61687;56.232;43.854;2023-02-28T11:26:01;99643.09;;;-2.76;71.65
73453;BME280;61687;56.232;43.854;2023-02-28T11:28:36;99638.44;;;-2.84;71.88
73453;BME280;61687;56.232;43.854;2023-02-28T11:36:31;99634.22;;;-2.91;73.48
73453;BME280;61687;56.232;43.854;2023-02-28T11:39:04;99637.22;;;-2.92;73.77
73453;BME280;61687;56.232;43.854;2023-02-28T12:00:02;99636.13;;;-3.10;74.90
73453;BME280;61687;56.232;43.854;2023-02-28T12:05:45;99620.00;;;-3.05;75.01
73453;BME280;61687;56.232;43.854;2023-02-28T12:11:09;99623.91;;;-3.17;76.74
73453;BME280;61687;56.232;43.854;2023-02-28T12:19:11;99606.63;;;-3.24;78.10
73453;BME280;61687;56.232;43.854;2023-02-28T12:21:43;99594.22;;;-3.20;78.44
73453;BME280;61687;56.232;43.854;2023-02-28T12:26:53;99600.22;;;-3.09;78.75
73453;BME280;61687;56.232;43.854;2023-02-28T12:29:30;99596.63;;;-3.19;78.68
73453;BME280;61687;56.232;43.854;2023-02-28T12:34:36;99594.38;;;-3.31;79.45
73453;BME280;61687;56.232;43.854;2023-02-28T12:37:14;99581.28;;;-3.32;79.60
73453;BME280;61687;56.232;43.854;2023-02-28T12:39:48;99587.78;;;-3.19;79.48
73453;BME280;61687;56.232;43.854;2023-02-28T12:42:30;99562.59;;;-3.18;79.38
73453;BME280;61687;56.232;43.854;2023-02-28T12:45:00;99557.50;;;-3.20;79.20
73453;BME280;61687;56.232;43.854;2023-02-28T12:47:30;99562.88;;;-3.20;79.70
73453;BME280;61687;56.232;43.854;2023-02-28T12:50:02;99551.16;;;-3.24;79.58
73453;BME280;61687;56.232;43.854;2023-02-28T12:52:50;99538.25;;;-3.22;79.20
73453;BME280;61687;56.232;43.854;2023-02-28T12:55:38;99551.19;;;-3.10;78.89
73453;BME280;61687;56.232;43.854;2023-02-28T13:09:21;99534.72;;;-3.03;77.49
73453;BME280;61687;56.232;43.854;2023-02-28T13:11:52;99529.97;;;-3.06;77.56
73453;BME280;61687;56.232;43.854;2023-02-28T13:14:28;99547.13;;;-3.07;77.81
73453;BME280;61687;56.232;43.854;2023-02-28T13:19:46;99529.75;;;-3.10;79.53
73453;BME280;61687;56.232;43.854;2023-02-28T13:27:54;99536.28;;;-3.16;79.59
73453;BME280;61687;56.232;43.854;2023-02-28T13:33:33;99529.13;;;-3.21;80.20
73453;BME280;61687;56.232;43.854;2023-02-28T13:44:22;99524.34;;;-3.24;81.05
73453;BME280;61687;56.232;43.854;2023-02-28T14:00:28;99504.41;;;-3.18;81.52
73453;BME280;61687;56.232;43.854;2023-02-28T14:05:42;99506.50;;;-3.14;81.35
73453;BME280;61687;56.232;43.854;2023-02-28T14:08:16;99512.44;;;-3.18;81.23
73453;BME280;61687;56.232;43.854;2023-02-28T14:10:47;99502.00;;;-3.19;81.62
73453;BME280;61687;56.232;43.854;2023-02-28T14:15:55;99492.09;;;-3.19;81.42
73453;BME280;61687;56.232;43.854;2023-02-28T14:18:23;99492.00;;;-3.13;81.31
73453;BME280;61687;56.232;43.854;2023-02-28T14:20:54;99480.88;;;-3.21;81.47
73453;BME280;61687;56.232;43.854;2023-02-28T14:29:00;99486.75;;;-3.19;80.98
73453;BME280;61687;56.232;43.854;2023-02-28T14:31:43;99480.88;;;-3.21;81.20
73453;BME280;61687;56.232;43.854;2023-02-28T14:36:41;99471.16;;;-3.17;80.84
73453;BME280;61687;56.232;43.854;2023-02-28T14:39:27;99468.78;;;-3.18;80.91
73453;BME280;61687;56.232;43.854;2023-02-28T14:41:58;99465.91;;;-3.22;80.57
73453;BME280;61687;56.232;43.854;2023-02-28T14:44:30;99471.34;;;-3.27;80.69
73453;BME280;61687;56.232;43.854;2023-02-28T14:47:01;99464.72;;;-3.16;80.36
73453;BME280;61687;56.232;43.854;2023-02-28T14:49:41;99466.28;;;-3.14;80.62
73453;BME280;61687;56.232;43.854;2023-02-28T14:52:22;99461.44;;;-3.12;80.48
73453;BME280;61687;56.232;43.854;2023-02-28T14:55:00;99459.66;;;-3.17;81.08
73453;BME280;61687;56.232;43.854;2023-02-28T14:57:32;99461.81;;;-3.19;80.75
73453;BME280;61687;56.232;43.854;2023-02-28T15:00:07;99463.44;;;-3.18;80.98
73453;BME280;61687;56.232;43.854;2023-02-28T15:02:39;99460.81;;;-3.23;81.01
73453;BME280;61687;56.232;43.854;2023-02-28T15:07:44;99455.84;;;-3.30;80.92
73453;BME280;61687;56.232;43.854;2023-02-28T15:10:18;99459.06;;;-3.28;81.15
73453;BME280;61687;56.232;43.854;2023-02-28T15:15:41;99447.75;;;-3.25;80.97
73453;BME280;61687;56.232;43.854;2023-02-28T15:18:16;99447.03;;;-3.17;80.98
73453;BME280;61687;56.232;43.854;2023-02-28T15:20:48;99442.00;;;-3.18;81.25
73453;BME280;61687;56.232;43.854;2023-02-28T15:23:15;99436.53;;;-3.27;81.86
73453;BME280;61687;56.232;43.854;2023-02-28T15:25:41;99445.66;;;-3.28;81.43
73453;BME280;61687;56.232;43.854;2023-02-28T15:28:16;99440.78;;;-3.26;81.45
73453;BME280;61687;56.232;43.854;2023-02-28T15:30:56;99436.72;;;-3.23;81.39
73453;BME280;61687;56.232;43.854;2023-02-28T15:33:33;99445.25;;;-3.21;81.52
73453;BME280;61687;56.232;43.854;2023-02-28T15:36:24;99442.38;;;-3.25;81.25